Time;durP1;ratioP1;P1;durP2;ratioP2;P2;SDS_P1;SDS_P2;PMS_P1;PMS_P2;Temp;Humidity;BMP_temperature;BMP_pressure;BME280_temperature;BME280_humidity;BME280_pressure;Samples;Min_cycle;Max_cycle;Signal;HPM_P1;HPM_P2
2022/12/17 13:05:54;;;;;;;26.65;16.25;;;;;;;-4.48;100.00;101848.38;686886;28;1256;-61
2022/12/17 13:06:43;;;;;;;29.08;16.55;;;;;;;-4.53;100.00;101856.47;685165;28;1381;-62
2022/12/17 13:07:04;;;;;;;28.52;17.38;;;;;;;-4.48;100.00;101855.16;684940;28;5033;-60
2022/12/17 13:07:28;;;;;;;29.70;17.77;;;;;;;-4.54;100.00;101854.69;687105;28;1203;-59
2022/12/17 13:07:48;;;;;;;28.55;16.40;;;;;;;-4.48;100.00;101858.59;686608;28;1311;-60
2022/12/17 13:08:08;;;;;;;28.95;16.80;;;;;;;-4.46;100.00;101851.06;686594;28;1347;-62
2022/12/17 13:08:29;;;;;;;30.43;17.03;;;;;;;-4.37;100.00;101858.53;686739;28;1409;-61
2022/12/17 13:08:50;;;;;;;28.80;16.55;;;;;;;-4.36;100.00;101850.06;687022;28;1219;-62
2022/12/17 13:09:16;;;;;;;29.07;17.33;;;;;;;-4.34;100.00;101851.97;685899;28;1505;-60
2022/12/17 13:09:47;;;;;;;27.65;17.40;;;;;;;-4.41;100.00;101849.75;686430;28;4409;-61
2022/12/17 13:10:26;;;;;;;28.35;17.48;;;;;;;-4.57;100.00;101857.91;685161;28;2742;-61
2022/12/17 13:10:48;;;;;;;27.75;17.25;;;;;;;-4.47;100.00;101851.84;686447;28;1753;-60
2022/12/17 13:11:35;;;;;;;30.73;18.48;;;;;;;-4.47;100.00;101856.97;686579;28;1319;-58
2022/12/17 13:12:01;;;;;;;27.65;16.73;;;;;;;-4.52;100.00;101860.81;685770;28;1221;-59
2022/12/17 13:12:34;;;;;;;29.33;17.33;;;;;;;-4.58;100.00;101857.78;686877;28;1443;-58
2022/12/17 13:12:55;;;;;;;29.42;17.60;;;;;;;-4.61;100.00;101853.34;689001;28;4486;-59
2022/12/17 13:13:19;;;;;;;29.80;17.25;;;;;;;-4.50;100.00;101851.59;688347;28;1274;-61
2022/12/17 13:13:54;;;;;;;28.00;18.27;;;;;;;-4.50;100.00;101847.41;689617;28;1216;-61
2022/12/17 13:14:45;;;;;;;28.55;18.08;;;;;;;-4.54;100.00;101855.59;689027;28;1211;-62
2022/12/17 13:15:05;;;;;;;29.88;18.00;;;;;;;-4.54;100.00;101847.94;686798;28;1521;-61
2022/12/17 13:15:36;;;;;;;30.07;18.03;;;;;;;-4.42;100.00;101839.41;686965;28;1399;-61
2022/12/17 13:16:30;;;;;;;26.50;16.75;;;;;;;-4.34;100.00;101844.31;684643;28;4766;-61
2022/12/17 13:16:55;;;;;;;28.83;17.80;;;;;;;-4.33;100.00;101842.66;687155;28;1377;-62
2022/12/17 13:17:15;;;;;;;28.42;17.27;;;;;;;-4.36;100.00;101839.88;686907;28;1468;-61
2022/12/17 13:17:45;;;;;;;28.07;17.23;;;;;;;-4.38;100.00;101838.88;687322;28;1374;-60
2022/12/17 13:18:27;;;;;;;27.23;17.30;;;;;;;-4.34;100.00;101839.19;686120;28;1338;-61
2022/12/17 13:18:48;;;;;;;29.00;17.83;;;;;;;-4.40;100.00;101836.22;685906;28;4402;-61
2022/12/17 13:19:38;;;;;;;29.27;18.10;;;;;;;-4.46;100.00;101834.09;686248;28;1753;-61
2022/12/17 13:20:21;;;;;;;27.67;17.35;;;;;;;-4.39;100.00;101839.63;686470;28;1196;-61
2022/12/17 13:20:41;;;;;;;27.08;17.25;;;;;;;-4.39;100.00;101844.75;687087;28;1480;-60
2022/12/17 13:21:03;;;;;;;26.13;16.97;;;;;;;-4.39;100.00;101842.19;686416;28;2320;-61
2022/12/17 13:21:26;;;;;;;28.23;17.17;;;;;;;-4.37;100.00;101844.09;686591;28;1295;-61
2022/12/17 13:21:47;;;;;;;29.38;17.80;;;;;;;-4.32;100.00;101846.97;687428;28;4695;-60
2022/12/17 13:22:13;;;;;;;28.58;17.02;;;;;;;-4.24;100.00;101843.31;687059;28;1307;-60
2022/12/17 13:22:33;;;;;;;27.05;17.35;;;;;;;-4.26;100.00;101842.34;687381;28;1464;-60
2022/12/17 13:23:13;;;;;;;27.40;17.27;;;;;;;-4.24;100.00;101845.00;688258;28;1414;-60
2022/12/17 13:23:36;;;;;;;27.52;16.85;;;;;;;-4.20;100.00;101842.78;687957;28;1559;-61
2022/12/17 13:23:56;;;;;;;28.15;16.75;;;;;;;-4.15;100.00;101843.13;687745;28;1224;-60
2022/12/17 13:24:25;;;;;;;28.20;16.80;;;;;;;-4.23;100.00;101837.44;686252;28;1346;-60
2022/12/17 13:24:48;;;;;;;27.52;16.83;;;;;;;-4.16;100.00;101846.47;685507;28;4677;-61
2022/12/17 13:25:21;;;;;;;28.42;16.63;;;;;;;-4.07;100.00;101842.03;685860;28;2601;-60
2022/12/17 13:25:41;;;;;;;27.40;17.10;;;;;;;-4.02;100.00;101837.25;689892;28;1316;-60
2022/12/17 13:26:13;;;;;;;27.13;17.20;;;;;;;-4.01;100.00;101839.03;689418;28;1396;-60
2022/12/17 13:26:39;;;;;;;27.65;16.83;;;;;;;-4.08;100.00;101832.59;688671;28;1445;-60
2022/12/17 13:27:00;;;;;;;26.88;16.52;;;;;;;-4.13;100.00;101836.47;687731;28;1175;-60
2022/12/17 13:27:32;;;;;;;27.03;16.43;;;;;;;-4.21;100.00;101843.56;687570;28;1456;-58
2022/12/17 13:27:52;;;;;;;26.27;16.00;;;;;;;-4.18;100.00;101841.25;686940;28;4720;-58
2022/12/17 13:28:29;;;;;;;27.03;16.23;;;;;;;-4.13;100.00;101845.00;687621;28;1536;-58
2022/12/17 13:28:56;;;;;;;26.27;16.00;;;;;;;-4.17;100.00;101843.00;687601;28;1402;-58
2022/12/17 13:29:23;;;;;;;26.83;17.00;;;;;;;-4.22;100.00;101844.34;687799;28;1308;-58
2022/12/17 13:29:44;;;;;;;27.00;15.90;;;;;;;-4.27;100.00;101835.44;687881;28;1338;-58
2022/12/17 13:30:16;;;;;;;27.27;16.20;;;;;;;-4.31;100.00;101843.66;687999;28;1180;-60
2022/12/17 13:30:37;;;;;;;25.55;16.60;;;;;;;-4.37;100.00;101835.56;686185;28;4378;-60
2022/12/17 13:31:04;;;;;;;26.85;16.70;;;;;;;-4.40;100.00;101830.19;686506;28;1136;-61
2022/12/17 13:31:27;;;;;;;26.33;16.50;;;;;;;-4.42;100.00;101839.41;685718;28;1435;-61
2022/12/17 13:31:56;;;;;;;26.48;16.85;;;;;;;-4.47;100.00;101837.41;686610;28;1334;-61
2022/12/17 13:32:27;;;;;;;27.48;17.33;;;;;;;-4.42;100.00;101837.75;686726;28;1208;-59
2022/12/17 13:33:32;;;;;;;27.13;17.80;;;;;;;-4.33;100.00;101835.00;684098;28;1350;-60
2022/12/17 13:34:07;;;;;;;25.58;16.67;;;;;;;-4.29;100.00;101827.69;677659;29;4392;-60
2022/12/17 13:34:51;;;;;;;25.77;16.65;;;;;;;-4.27;100.00;101830.34;678222;29;2392;-62
2022/12/17 13:35:20;;;;;;;28.17;17.55;;;;;;;-4.28;100.00;101829.47;681241;28;1367;-57
2022/12/17 13:36:05;;;;;;;26.65;17.63;;;;;;;-4.24;100.00;101828.00;681306;29;1568;-58
2022/12/17 13:36:37;;;;;;;25.90;16.17;;;;;;;-4.09;100.00;101829.94;682408;28;1227;-57
2022/12/17 13:37:07;;;;;;;28.00;16.83;;;;;;;-4.04;100.00;101834.59;686384;28;4890;-59
2022/12/17 13:37:37;;;;;;;27.63;16.52;;;;;;;-4.07;100.00;101824.16;686738;28;1403;-61
2022/12/17 13:38:08;;;;;;;26.40;16.48;;;;;;;-3.97;100.00;101831.69;686435;28;1314;-61
2022/12/17 13:38:46;;;;;;;25.67;15.95;;;;;;;-3.92;100.00;101828.59;686810;28;1490;-59
2022/12/17 13:39:24;;;;;;;24.30;15.80;;;;;;;-4.03;100.00;101823.59;683508;28;1620;-60
2022/12/17 13:40:02;;;;;;;24.80;15.40;;;;;;;-3.96;100.00;101822.34;686638;28;4671;-60
2022/12/17 13:40:35;;;;;;;27.67;16.58;;;;;;;-4.04;100.00;101834.59;686888;28;1213;-59
2022/12/17 13:41:08;;;;;;;26.02;16.30;;;;;;;-4.04;100.00;101826.03;684397;28;2312;-61
2022/12/17 13:41:34;;;;;;;24.50;15.88;;;;;;;-3.86;100.00;101829.03;687359;28;1399;-60
2022/12/17 13:41:56;;;;;;;27.38;16.85;;;;;;;-3.94;100.00;101825.94;687933;28;1821;-60
2022/12/17 13:42:35;;;;;;;24.98;16.10;;;;;;;-3.88;100.00;101823.81;687331;28;1256;-60
2022/12/17 13:42:55;;;;;;;25.13;15.65;;;;;;;-3.84;100.00;101825.81;688630;28;4440;-59
2022/12/17 13:43:23;;;;;;;25.48;15.70;;;;;;;-3.90;100.00;101830.47;689583;28;1349;-61
2022/12/17 13:43:47;;;;;;;25.58;15.93;;;;;;;-3.92;100.00;101829.47;686656;28;1510;-60
2022/12/17 13:44:48;;;;;;;25.83;16.10;;;;;;;-3.88;100.00;101831.47;685751;28;1677;-60
2022/12/17 13:45:14;;;;;;;24.48;15.52;;;;;;;-3.76;100.00;101832.34;684580;28;3006;-64
2022/12/17 13:45:37;;;;;;;27.48;16.27;;;;;;;-3.78;100.00;101826.25;686383;28;1520;-61
2022/12/17 13:45:58;;;;;;;27.35;16.02;;;;;;;-3.77;100.00;101829.69;685972;28;4808;-60
2022/12/17 13:46:26;;;;;;;28.17;16.40;;;;;;;-3.90;100.00;101827.94;689735;28;1378;-61
2022/12/17 13:46:49;;;;;;;24.98;15.52;;;;;;;-3.94;100.00;101819.16;689487;28;1553;-60
2022/12/17 13:47:20;;;;;;;25.20;14.90;;;;;;;-3.86;100.00;101824.81;689296;28;1358;-60
2022/12/17 13:47:41;;;;;;;26.35;15.80;;;;;;;-3.91;100.00;101825.28;687701;28;2380;-60
2022/12/17 13:48:01;;;;;;;26.10;16.10;;;;;;;-3.90;100.00;101827.03;687298;28;1300;-60
2022/12/17 13:48:25;;;;;;;24.73;15.02;;;;;;;-3.91;100.00;101830.38;688998;28;1495;-60
2022/12/17 13:48:56;;;;;;;25.10;15.32;;;;;;;-3.90;100.00;101822.81;687715;28;4373;-61
2022/12/17 13:49:21;;;;;;;25.65;15.68;;;;;;;-3.78;100.00;101826.25;687855;28;1425;-60
2022/12/17 13:49:49;;;;;;;24.08;14.65;;;;;;;-3.77;100.00;101825.50;689708;28;1488;-60
2022/12/17 13:50:29;;;;;;;25.98;16.40;;;;;;;-3.88;100.00;101821.25;689327;28;1362;-59
2022/12/17 13:51:02;;;;;;;25.52;15.40;;;;;;;-3.90;100.00;101825.38;686253;28;1744;-61
2022/12/17 13:51:24;;;;;;;26.05;15.65;;;;;;;-3.86;100.00;101823.91;686086;28;1359;-61
2022/12/17 13:51:45;;;;;;;25.23;15.95;;;;;;;-3.84;100.00;101830.03;685342;28;4591;-61
2022/12/17 13:52:06;;;;;;;24.50;15.53;;;;;;;-3.84;100.00;101828.34;685226;28;1311;-60
2022/12/17 13:52:28;;;;;;;25.02;14.75;;;;;;;-3.72;100.00;101830.00;685229;28;1343;-59
2022/12/17 13:52:49;;;;;;;26.52;15.65;;;;;;;-3.80;100.00;101820.13;687744;28;1188;-61
2022/12/17 13:53:11;;;;;;;26.07;15.83;;;;;;;-3.83;100.00;101829.28;686678;28;1314;-59
2022/12/17 13:53:36;;;;;;;24.20;15.13;;;;;;;-3.77;100.00;101828.06;686137;28;893;-60
2022/12/17 13:53:59;;;;;;;25.67;15.73;;;;;;;-3.68;100.00;101827.81;686614;28;1666;-61
2022/12/17 13:54:21;;;;;;;25.20;15.60;;;;;;;-3.61;100.00;101827.47;687177;28;1094;-61
2022/12/17 13:54:42;;;;;;;25.08;15.45;;;;;;;-3.66;100.00;101836.47;686253;28;4466;-60
2022/12/17 13:55:09;;;;;;;25.65;15.02;;;;;;;-3.76;100.00;101836.59;685454;28;2533;-60
2022/12/17 13:55:29;;;;;;;23.25;15.05;;;;;;;-3.70;100.00;101834.47;687135;28;1325;-61
2022/12/17 13:55:52;;;;;;;23.20;14.90;;;;;;;-3.63;100.00;101829.03;687157;28;1509;-60
2022/12/17 13:56:13;;;;;;;25.52;15.85;;;;;;;-3.70;100.00;101831.03;686530;28;1275;-61
2022/12/17 13:56:36;;;;;;;26.10;15.60;;;;;;;-3.67;100.00;101831.25;688550;28;1609;-61
2022/12/17 13:57:12;;;;;;;25.28;15.40;;;;;;;-3.73;100.00;101830.81;686682;28;1236;-61
2022/12/17 13:57:36;;;;;;;25.42;15.40;;;;;;;-3.84;100.00;101830.91;687910;28;1474;-60
2022/12/17 13:57:56;;;;;;;23.50;15.20;;;;;;;-3.89;100.00;101829.72;685757;28;4539;-60
2022/12/17 13:58:24;;;;;;;26.42;16.17;;;;;;;-3.82;100.00;101831.94;683659;28;1693;-60
2022/12/17 13:58:50;;;;;;;24.92;15.68;;;;;;;-3.79;100.00;101829.59;686029;28;1347;-61
2022/12/17 13:59:19;;;;;;;24.63;15.27;;;;;;;-3.67;100.00;101823.56;685068;28;1682;-61
2022/12/17 13:59:40;;;;;;;23.30;14.98;;;;;;;-3.69;100.00;101827.69;684188;28;1357;-61
2022/12/17 14:00:03;;;;;;;24.75;15.20;;;;;;;-3.78;100.00;101833.94;685258;28;1330;-60
2022/12/17 14:00:33;;;;;;;24.05;15.23;;;;;;;-3.89;100.00;101832.28;688748;28;2309;-62
2022/12/17 14:01:11;;;;;;;24.30;14.83;;;;;;;-3.96;100.00;101823.28;688827;28;4311;-60
2022/12/17 14:01:31;;;;;;;25.55;15.93;;;;;;;-3.84;100.00;101827.47;686290;28;3017;-61
2022/12/17 14:01:53;;;;;;;24.85;15.00;;;;;;;-3.85;100.00;101826.59;687078;28;1919;-59
2022/12/17 14:02:26;;;;;;;22.38;14.88;;;;;;;-3.89;100.00;101824.59;686356;28;1737;-61
2022/12/17 14:02:47;;;;;;;26.92;15.88;;;;;;;-3.78;100.00;101830.47;687027;28;1296;-60
2022/12/17 14:03:10;;;;;;;24.70;15.30;;;;;;;-3.82;100.00;101826.81;686295;28;1326;-60
2022/12/17 14:03:31;;;;;;;25.92;15.90;;;;;;;-3.85;100.00;101823.16;686635;28;2080;-61
2022/12/17 14:03:59;;;;;;;24.93;15.87;;;;;;;-3.84;100.00;101830.91;688737;28;4753;-59
2022/12/17 14:04:25;;;;;;;24.23;15.50;;;;;;;-3.74;100.00;101827.34;689069;28;1310;-59
2022/12/17 14:04:51;;;;;;;24.75;15.25;;;;;;;-3.81;100.00;101826.06;688611;28;1236;-60
2022/12/17 14:05:21;;;;;;;25.67;16.20;;;;;;;-3.87;100.00;101825.59;689202;28;1398;-59
2022/12/17 14:05:43;;;;;;;25.30;17.55;;;;;;;-3.83;100.00;101830.16;686858;28;1268;-61
2022/12/17 14:06:08;;;;;;;25.20;15.85;;;;;;;-3.76;100.00;101828.94;686432;28;1401;-60
2022/12/17 14:06:35;;;;;;;23.95;15.65;;;;;;;-3.73;100.00;101828.25;686741;28;1530;-61
2022/12/17 14:06:59;;;;;;;22.60;14.55;;;;;;;-3.62;100.00;101830.78;686077;28;4417;-61
2022/12/17 14:07:20;;;;;;;21.83;14.43;;;;;;;-3.63;100.00;101828.13;686652;28;1263;-60
2022/12/17 14:07:41;;;;;;;24.33;16.00;;;;;;;-3.70;100.00;101824.25;686245;28;2332;-60
2022/12/17 14:08:03;;;;;;;25.13;16.27;;;;;;;-3.77;100.00;101825.50;686605;28;1358;-60
2022/12/17 14:08:29;;;;;;;23.58;15.20;;;;;;;-3.67;100.00;101823.56;687915;28;1574;-60
2022/12/17 14:08:52;;;;;;;24.02;15.80;;;;;;;-3.69;100.00;101825.16;686565;28;1411;-60
2022/12/17 14:09:17;;;;;;;23.20;15.05;;;;;;;-3.64;100.00;101821.22;689023;28;1313;-61
2022/12/17 14:09:42;;;;;;;25.52;16.10;;;;;;;-3.58;100.00;101820.81;689155;28;4414;-61
2022/12/17 14:10:04;;;;;;;23.67;15.63;;;;;;;-3.61;100.00;101822.34;688887;28;1335;-60
2022/12/17 14:10:24;;;;;;;23.05;14.90;;;;;;;-3.65;100.00;101822.03;688715;28;2614;-60
2022/12/17 14:12:20;;;;;;;25.20;15.68;;;;;;;-3.66;100.00;101826.22;689629;28;1212;-60
2022/12/17 14:12:21;;;;;;;23.52;15.18;;;;;;;-3.79;100.00;101826.16;686715;28;1377;-60
2022/12/17 14:12:41;;;;;;;25.58;15.55;;;;;;;-3.82;100.00;101825.91;686188;28;4316;-60
2022/12/17 14:13:09;;;;;;;25.63;16.03;;;;;;;-3.89;100.00;101824.59;686878;28;1282;-60
2022/12/17 14:13:29;;;;;;;26.17;16.20;;;;;;;-3.89;100.00;101826.25;689232;28;1172;-61
2022/12/17 14:13:50;;;;;;;24.48;15.55;;;;;;;-3.88;100.00;101826.34;689973;28;1228;-59
2022/12/17 14:14:25;;;;;;;24.45;15.82;;;;;;;-3.96;100.00;101828.38;689272;28;1279;-62
2022/12/17 14:15:07;;;;;;;24.30;15.80;;;;;;;-3.97;100.00;101835.94;689897;28;1307;-60
2022/12/17 14:15:28;;;;;;;24.42;15.68;;;;;;;-3.92;100.00;101829.47;688703;28;1540;-60
2022/12/17 14:15:51;;;;;;;26.33;16.40;;;;;;;-3.91;100.00;101822.72;686792;28;4431;-61
2022/12/17 14:16:16;;;;;;;27.80;18.10;;;;;;;-3.89;100.00;101827.16;686404;28;1350;-60
2022/12/17 14:16:39;;;;;;;27.42;19.27;;;;;;;-3.80;100.00;101830.34;686359;28;1211;-60
2022/12/17 14:17:00;;;;;;;27.23;18.73;;;;;;;-3.80;100.00;101825.25;687119;28;1314;-61
2022/12/17 14:17:23;;;;;;;26.37;17.73;;;;;;;-3.74;100.00;101827.34;687366;28;1354;-61
2022/12/17 14:17:46;;;;;;;25.13;16.83;;;;;;;-3.77;100.00;101832.25;687287;28;1358;-61
2022/12/17 14:18:14;;;;;;;24.48;16.20;;;;;;;-3.81;100.00;101825.13;686311;28;1346;-61
2022/12/17 14:18:38;;;;;;;24.45;16.10;;;;;;;-3.86;100.00;101832.50;686118;28;2340;-60
2022/12/17 14:18:59;;;;;;;25.48;15.90;;;;;;;-3.91;100.00;101827.81;685779;28;4708;-60
2022/12/17 14:19:19;;;;;;;25.02;15.88;;;;;;;-3.95;100.00;101834.38;687145;28;1359;-60
2022/12/17 14:19:40;;;;;;;24.53;16.20;;;;;;;-3.93;100.00;101825.16;687484;28;1220;-61
2022/12/17 14:20:10;;;;;;;25.25;16.00;;;;;;;-3.98;100.00;101832.47;687181;28;1306;-60
2022/12/17 14:20:34;;;;;;;23.80;15.55;;;;;;;-3.81;100.00;101831.16;687241;28;1389;-61
2022/12/17 14:20:55;;;;;;;24.42;15.45;;;;;;;-3.81;100.00;101831.16;686913;28;1481;-60
2022/12/17 14:21:16;;;;;;;24.23;15.20;;;;;;;-3.67;100.00;101838.91;686492;28;2429;-60
2022/12/17 14:21:37;;;;;;;25.80;15.55;;;;;;;-3.76;100.00;101837.47;686579;28;1926;-60
2022/12/17 14:21:58;;;;;;;24.17;14.60;;;;;;;-3.77;100.00;101832.25;686666;28;4307;-60
2022/12/17 14:22:48;;;;;;;22.95;15.57;;;;;;;-3.78;100.00;101833.94;687273;28;1315;-59
2022/12/17 14:23:23;;;;;;;24.05;15.73;;;;;;;-3.73;100.00;101835.94;685551;28;1609;-62
2022/12/17 14:23:47;;;;;;;26.25;16.52;;;;;;;-3.80;100.00;101837.16;690138;28;1313;-60
2022/12/17 14:24:12;;;;;;;24.27;15.98;;;;;;;-3.77;100.00;101830.59;688720;28;1283;-60
2022/12/17 14:24:33;;;;;;;24.55;15.75;;;;;;;-3.79;100.00;101828.72;687393;28;1450;-61
2022/12/17 14:24:53;;;;;;;26.27;15.95;;;;;;;-3.86;100.00;101827.38;685612;28;4394;-61
2022/12/17 14:25:17;;;;;;;25.67;15.17;;;;;;;-3.91;100.00;101830.38;681830;28;2809;-60
2022/12/17 14:25:39;;;;;;;23.73;15.52;;;;;;;-3.97;100.00;101828.28;680942;28;1311;-61
2022/12/17 14:26:00;;;;;;;24.30;15.55;;;;;;;-3.99;100.00;101834.91;681287;28;1264;-60
2022/12/17 14:26:21;;;;;;;24.73;15.37;;;;;;;-3.95;100.00;101826.69;683104;28;1454;-60
2022/12/17 14:26:49;;;;;;;26.13;15.40;;;;;;;-3.88;100.00;101836.59;684942;28;1383;-61
2022/12/17 14:27:31;;;;;;;24.83;15.63;;;;;;;-3.79;100.00;101823.59;685500;28;1354;-61
2022/12/17 14:27:54;;;;;;;25.33;16.10;;;;;;;-3.80;100.00;101835.47;686095;28;4317;-61
2022/12/17 14:28:21;;;;;;;24.85;15.98;;;;;;;-3.89;100.00;101834.81;686829;28;982;-62
2022/12/17 14:28:51;;;;;;;24.17;15.88;;;;;;;-3.88;100.00;101830.59;686148;28;1383;-61
2022/12/17 14:29:13;;;;;;;24.35;15.93;;;;;;;-3.89;100.00;101828.81;686078;28;1353;-61
2022/12/17 14:29:45;;;;;;;23.05;15.57;;;;;;;-3.95;100.00;101829.25;686731;28;1190;-61
2022/12/17 14:30:34;;;;;;;24.02;15.38;;;;;;;-3.89;100.00;101827.16;685971;28;1263;-60
2022/12/17 14:31:13;;;;;;;21.77;15.25;;;;;;;-3.85;100.00;101831.72;685560;28;4355;-60
2022/12/17 14:31:35;;;;;;;23.42;15.52;;;;;;;-3.92;100.00;101826.91;686801;28;1246;-60
2022/12/17 14:32:01;;;;;;;24.40;15.05;;;;;;;-3.79;100.00;101834.69;686885;28;1247;-62
2022/12/17 14:32:31;;;;;;;23.83;14.98;;;;;;;-3.78;100.00;101839.03;686860;28;908;-60
2022/12/17 14:32:52;;;;;;;24.25;14.18;;;;;;;-3.79;100.00;101826.16;687099;28;1305;-61
2022/12/17 14:33:33;;;;;;;22.83;14.63;;;;;;;-3.82;100.00;101831.94;685972;28;873;-59
2022/12/17 14:34:06;;;;;;;23.23;14.98;;;;;;;-3.85;100.00;101831.72;686286;28;4443;-59
2022/12/17 14:34:27;;;;;;;23.00;14.45;;;;;;;-3.74;100.00;101835.03;686559;28;1400;-61
2022/12/17 14:34:47;;;;;;;23.43;14.47;;;;;;;-3.78;100.00;101833.03;687015;28;1622;-60
2022/12/17 14:35:24;;;;;;;21.67;13.50;;;;;;;-3.71;100.00;101829.25;685808;28;2236;-60
2022/12/17 14:35:51;;;;;;;22.88;14.75;;;;;;;-3.78;100.00;101831.38;686856;28;924;-60
2022/12/17 14:36:14;;;;;;;21.67;14.38;;;;;;;-3.75;100.00;101833.25;686100;28;1292;-61
2022/12/17 14:36:37;;;;;;;23.50;14.18;;;;;;;-3.77;100.00;101835.72;687021;28;991;-61
2022/12/17 14:36:59;;;;;;;24.52;14.10;;;;;;;-3.74;100.00;101835.03;686039;28;4736;-60
2022/12/17 14:37:23;;;;;;;23.75;14.68;;;;;;;-3.71;100.00;101825.03;687224;28;946;-59
2022/12/17 14:37:45;;;;;;;23.63;14.68;;;;;;;-3.75;100.00;101835.81;686975;28;959;-60
2022/12/17 14:38:16;;;;;;;23.88;15.15;;;;;;;-3.79;100.00;101832.16;686065;28;1543;-60
2022/12/17 14:38:37;;;;;;;22.08;13.80;;;;;;;-3.84;100.00;101836.03;686266;28;2327;-61
2022/12/17 14:39:09;;;;;;;24.37;15.33;;;;;;;-3.86;100.00;101836.69;686796;28;5145;-59
2022/12/17 14:39:31;;;;;;;23.45;14.55;;;;;;;-3.89;100.00;101837.38;686114;28;900;-61
2022/12/17 14:39:58;;;;;;;24.75;14.43;;;;;;;-3.74;100.00;101837.56;686778;28;4378;-60
2022/12/17 14:40:20;;;;;;;22.35;14.73;;;;;;;-3.74;100.00;101835.03;686932;28;936;-60
2022/12/17 14:40:41;;;;;;;22.95;14.32;;;;;;;-3.79;100.00;101836.38;686078;28;952;-62
2022/12/17 14:42:34;;;;;;;22.92;14.70;;;;;;;-3.62;100.00;101835.03;686406;28;936;-60
2022/12/17 14:42:59;;;;;;;22.74;14.32;;;;;;;-3.67;100.00;101827.03;686124;28;4350;-62
2022/12/17 14:43:27;;;;;;;20.60;13.93;;;;;;;-3.59;100.00;101830.13;687571;28;1134;-61
2022/12/17 14:43:54;;;;;;;22.48;14.25;;;;;;;-3.53;100.00;101839.91;687098;28;991;-60
2022/12/17 14:44:19;;;;;;;22.85;14.20;;;;;;;-3.65;100.00;101832.25;686907;28;1374;-60
2022/12/17 14:44:50;;;;;;;23.27;14.55;;;;;;;-3.71;100.00;101835.25;687121;28;1315;-60
2022/12/17 14:45:13;;;;;;;22.52;14.75;;;;;;;-3.83;100.00;101832.69;686603;28;1032;-61
2022/12/17 14:46:19;;;;;;;23.23;14.85;;;;;;;-3.82;100.00;101831.94;686750;28;884;-60
2022/12/17 14:46:20;;;;;;;23.33;14.63;;;;;;;-3.87;100.00;101837.50;686379;28;4987;-62
2022/12/17 14:46:41;;;;;;;22.80;14.20;;;;;;;-3.93;100.00;101827.72;686588;28;1413;-60
2022/12/17 14:47:15;;;;;;;24.00;14.93;;;;;;;-3.92;100.00;101833.69;686590;28;1022;-61
2022/12/17 14:47:36;;;;;;;23.73;15.35;;;;;;;-3.95;100.00;101834.38;686807;28;918;-62
2022/12/17 14:47:59;;;;;;;23.50;15.57;;;;;;;-3.97;100.00;101835.94;686593;28;1085;-62
2022/12/17 14:48:59;;;;;;;22.17;15.18;;;;;;;-4.01;100.00;101839.91;686725;28;2365;-59
2022/12/17 14:49:17;;;;;;;21.90;14.75;;;;;;;-3.98;100.00;101836.69;685919;28;4834;-60
2022/12/17 14:49:52;;;;;;;24.25;15.85;;;;;;;-3.96;100.00;101837.69;686600;28;968;-60
2022/12/17 14:50:12;;;;;;;23.02;15.35;;;;;;;-3.90;100.00;101835.59;686592;28;1002;-61
2022/12/17 14:50:35;;;;;;;22.90;15.32;;;;;;;-3.94;100.00;101841.25;686268;28;1169;-60
2022/12/17 14:50:56;;;;;;;21.45;14.50;;;;;;;-3.99;100.00;101840.94;686767;28;1013;-60
2022/12/17 14:51:28;;;;;;;22.87;15.27;;;;;;;-4.02;100.00;101832.16;686317;28;2845;-61
2022/12/17 14:51:49;;;;;;;25.38;15.00;;;;;;;-4.08;100.00;101837.69;686249;28;4275;-60
2022/12/17 14:52:13;;;;;;;25.60;15.30;;;;;;;-4.12;100.00;101836.56;685580;28;1055;-61
2022/12/17 14:52:38;;;;;;;24.60;15.36;;;;;;;-4.11;100.00;101845.16;686798;28;952;-60
2022/12/17 14:53:01;;;;;;;25.05;16.00;;;;;;;-4.11;100.00;101842.59;686490;28;1052;-60
2022/12/17 14:53:25;;;;;;;24.77;15.82;;;;;;;-4.12;100.00;101836.56;688281;28;1294;-60
2022/12/17 14:53:47;;;;;;;25.75;16.02;;;;;;;-4.11;100.00;101848.56;687737;28;1388;-61
2022/12/17 14:54:24;;;;;;;23.65;15.77;;;;;;;-4.12;100.00;101848.47;688458;28;957;-61
2022/12/17 14:54:45;;;;;;;23.27;15.13;;;;;;;-4.12;100.00;101841.69;686982;28;4333;-62
2022/12/17 14:55:38;;;;;;;25.33;15.82;;;;;;;-4.17;100.00;101839.56;687758;28;2455;-61
2022/12/17 14:55:59;;;;;;;23.30;15.50;;;;;;;-4.22;100.00;101844.34;688327;28;1015;-62
2022/12/17 14:56:22;;;;;;;23.90;15.63;;;;;;;-4.26;100.00;101842.34;689674;28;883;-61
2022/12/17 14:56:46;;;;;;;24.95;16.00;;;;;;;-4.28;100.00;101838.75;686801;28;908;-62
2022/12/17 14:57:19;;;;;;;23.75;15.35;;;;;;;-4.29;100.00;101839.56;686676;28;1386;-62
2022/12/17 14:57:39;;;;;;;23.65;15.80;;;;;;;-4.29;100.00;101837.00;684870;28;4769;-61
2022/12/17 14:58:15;;;;;;;23.17;15.60;;;;;;;-4.31;100.00;101838.53;686283;28;1214;-59
2022/12/17 14:58:44;;;;;;;25.70;15.75;;;;;;;-4.31;100.00;101841.09;686582;28;2614;-60
2022/12/17 14:59:04;;;;;;;25.58;15.88;;;;;;;-4.31;100.00;101841.97;686578;28;1657;-61
2022/12/17 14:59:36;;;;;;;23.02;15.45;;;;;;;-4.32;100.00;101836.75;689498;28;873;-62
2022/12/17 14:59:56;;;;;;;24.98;15.60;;;;;;;-4.28;100.00;101838.75;689153;28;1401;-61
2022/12/17 15:00:17;;;;;;;22.80;15.13;;;;;;;-4.24;100.00;101840.78;689144;28;1243;-60
2022/12/17 15:00:41;;;;;;;23.42;15.07;;;;;;;-4.20;100.00;101845.34;687996;28;4410;-59
2022/12/17 15:01:12;;;;;;;23.48;14.77;;;;;;;-4.24;100.00;101834.78;688553;28;2414;-60
2022/12/17 15:01:33;;;;;;;22.73;14.77;;;;;;;-4.23;100.00;101837.44;689065;28;987;-61
2022/12/17 15:01:54;;;;;;;23.67;15.02;;;;;;;-4.22;100.00;101843.44;689630;28;2070;-61
2022/12/17 15:02:14;;;;;;;22.98;14.77;;;;;;;-4.21;100.00;101841.03;687898;28;1534;-62
2022/12/17 15:02:37;;;;;;;23.40;14.97;;;;;;;-4.21;100.00;101843.56;687719;28;1546;-60
2022/12/17 15:02:57;;;;;;;23.85;15.57;;;;;;;-4.23;100.00;101834.03;687037;28;1555;-61
2022/12/17 15:03:27;;;;;;;24.37;16.03;;;;;;;-4.18;100.00;101838.69;687163;28;1399;-61
2022/12/17 15:03:48;;;;;;;25.50;15.60;;;;;;;-4.20;100.00;101836.78;686131;28;4314;-61
2022/12/17 15:04:08;;;;;;;23.47;15.20;;;;;;;-4.25;100.00;101833.91;686735;28;1528;-60
2022/12/17 15:04:31;;;;;;;21.42;14.30;;;;;;;-4.27;100.00;101832.91;686739;28;1337;-59
2022/12/17 15:04:55;;;;;;;21.48;14.50;;;;;;;-4.31;100.00;101836.00;687463;28;916;-61
2022/12/17 15:05:16;;;;;;;21.52;14.40;;;;;;;-4.29;100.00;101837.88;688242;28;2563;-60
2022/12/17 15:05:37;;;;;;;22.42;14.73;;;;;;;-4.25;100.00;101833.91;688549;28;1213;-61
2022/12/17 15:06:01;;;;;;;23.83;14.73;;;;;;;-4.25;100.00;101833.91;688935;28;914;-60
2022/12/17 15:06:21;;;;;;;22.80;14.90;;;;;;;-4.25;100.00;101833.00;687674;28;1007;-60
2022/12/17 15:06:42;;;;;;;25.70;15.80;;;;;;;-4.19;100.00;101826.69;685971;28;4600;-60
2022/12/17 15:07:04;;;;;;;24.98;15.45;;;;;;;-4.01;100.00;101828.81;684248;28;1058;-62
2022/12/17 15:07:27;;;;;;;23.70;15.07;;;;;;;-4.03;100.00;101832.91;685879;28;1028;-60
2022/12/17 15:07:48;;;;;;;22.55;15.15;;;;;;;-4.05;100.00;101829.38;685561;28;991;-61
2022/12/17 15:08:10;;;;;;;24.03;15.40;;;;;;;-4.11;100.00;101832.38;686476;28;912;-60
2022/12/17 15:08:34;;;;;;;23.58;15.13;;;;;;;-4.12;100.00;101830.59;685963;28;2268;-61
2022/12/17 15:08:54;;;;;;;21.77;14.70;;;;;;;-4.14;100.00;101825.38;686552;28;987;-60
2022/12/17 15:09:14;;;;;;;22.35;14.75;;;;;;;-4.15;100.00;101835.47;686710;28;1259;-61
2022/12/17 15:09:36;;;;;;;23.63;15.17;;;;;;;-4.16;100.00;101837.13;686738;28;936;-62
2022/12/17 15:09:56;;;;;;;24.27;14.68;;;;;;;-4.19;100.00;101838.56;684846;28;4547;-61
2022/12/17 15:10:19;;;;;;;22.30;14.40;;;;;;;-4.25;100.00;101839.03;685967;28;849;-61
2022/12/17 15:10:39;;;;;;;22.50;14.85;;;;;;;-4.30;100.00;101833.56;683751;28;1387;-61
2022/12/17 15:11:00;;;;;;;22.87;14.37;;;;;;;-4.34;100.00;101833.22;684616;28;893;-61